Time;durP1;ratioP1;P1;durP2;ratioP2;P2;SDS_P1;SDS_P2;PMS_P1;PMS_P2;Temp;Humidity;BMP_temperature;BMP_pressure;BME280_temperature;BME280_humidity;BME280_pressure;Samples;Min_cycle;Max_cycle;Signal;HPM_P1;HPM_P2
2021/11/07 00:01:28;;;;;;;11.48;10.48;;;;;;;;;;2085679;28;20171;-64
2021/11/07 00:05:35;;;;;;;13.35;10.90;;;;;;;;;;2077930;28;20179;-62
2021/11/07 00:06:38;;;;;;;13.98;11.38;;;;;;;;;;2087246;28;20160;-58
2021/11/07 00:10:32;;;;;;;13.63;11.02;;;;;;;;;;2081702;28;20657;-62
2021/11/07 00:11:37;;;;;;;11.60;10.50;;;;;;;;;;2086950;28;20245;-62
2021/11/07 00:12:41;;;;;;;12.43;10.98;;;;;;;;;;2088822;28;20679;-62
2021/11/07 00:13:42;;;;;;;12.77;11.48;;;;;;;;;;2088782;28;20167;-62
2021/11/07 00:14:47;;;;;;;10.77;9.80;;;;;;;;;;2088765;28;20167;-62
2021/11/07 00:15:47;;;;;;;13.40;12.00;;;;;;;;;;2082549;28;20188;-63
2021/11/07 00:16:48;;;;;;;13.77;12.35;;;;;;;;;;2088248;28;20172;-63
2021/11/07 00:17:53;;;;;;;17.02;13.02;;;;;;;;;;2072787;28;20540;-61
2021/11/07 00:19:10;;;;;;;16.17;12.73;;;;;;;;;;2088991;28;20156;-60
2021/11/07 00:20:24;;;;;;;17.48;13.80;;;;;;;;;;2078172;28;20170;-63
2021/11/07 00:21:27;;;;;;;16.08;11.75;;;;;;;;;;2088823;28;20160;-64
2021/11/07 00:24:50;;;;;;;15.38;12.68;;;;;;;;;;2089323;28;20244;-60
2021/11/07 00:26:12;;;;;;;14.25;12.70;;;;;;;;;;2082600;28;20187;-63
2021/11/07 00:27:27;;;;;;;12.95;11.73;;;;;;;;;;2090322;28;20239;-63
2021/11/07 00:28:36;;;;;;;15.40;12.40;;;;;;;;;;2085396;28;20184;-63
2021/11/07 00:29:43;;;;;;;15.15;13.73;;;;;;;;;;2073773;28;20263;-61
2021/11/07 00:30:53;;;;;;;18.17;14.30;;;;;;;;;;2074622;28;20169;-63
2021/11/07 00:36:39;;;;;;;16.00;14.43;;;;;;;;;;2088171;28;20219;-60
2021/11/07 00:37:47;;;;;;;14.05;12.77;;;;;;;;;;2093125;28;20193;-60
2021/11/07 00:41:14;;;;;;;17.05;15.45;;;;;;;;;;2092526;28;20194;-63
2021/11/07 00:42:33;;;;;;;15.90;14.32;;;;;;;;;;2090870;28;20184;-62
2021/11/07 00:43:40;;;;;;;14.63;13.13;;;;;;;;;;2092152;28;20164;-60
2021/11/07 00:44:50;;;;;;;16.58;12.70;;;;;;;;;;2089102;28;20179;-62
2021/11/07 00:46:14;;;;;;;18.15;16.27;;;;;;;;;;2077734;28;20175;-62
2021/11/07 00:47:38;;;;;;;16.05;13.80;;;;;;;;;;2086045;28;20196;-62
2021/11/07 00:49:15;;;;;;;15.52;14.10;;;;;;;;;;2076963;28;20157;-62
2021/11/07 00:50:10;;;;;;;17.83;16.02;;;;;;;;;;2082284;28;20801;-60
2021/11/07 00:52:38;;;;;;;16.30;14.80;;;;;;;;;;2085077;28;20173;-62
2021/11/07 00:53:43;;;;;;;16.33;13.98;;;;;;;;;;2088647;28;20178;-62
2021/11/07 00:58:57;;;;;;;16.20;14.50;;;;;;;;;;2088821;28;20199;-59
2021/11/07 01:00:00;;;;;;;16.73;13.38;;;;;;;;;;2089955;28;20257;-61
2021/11/07 01:01:04;;;;;;;18.27;16.58;;;;;;;;;;2090456;28;20180;-61
2021/11/07 01:02:16;;;;;;;19.30;17.40;;;;;;;;;;2089455;28;20515;-63
2021/11/07 01:03:18;;;;;;;18.98;17.05;;;;;;;;;;2086327;28;20186;-60
2021/11/07 01:04:19;;;;;;;15.18;12.73;;;;;;;;;;2090576;28;20175;-61
2021/11/07 01:05:22;;;;;;;18.13;14.35;;;;;;;;;;2081502;28;20172;-61
2021/11/07 01:06:22;;;;;;;17.60;15.70;;;;;;;;;;2076889;28;20653;-62
2021/11/07 01:07:24;;;;;;;17.17;15.57;;;;;;;;;;2086407;28;20196;-62
2021/11/07 01:08:24;;;;;;;15.43;13.98;;;;;;;;;;2084422;28;20249;-61
2021/11/07 01:09:24;;;;;;;18.95;17.15;;;;;;;;;;2086675;28;20195;-58
2021/11/07 01:10:26;;;;;;;20.02;18.00;;;;;;;;;;2091323;28;20664;-59
2021/11/07 01:11:27;;;;;;;18.52;16.83;;;;;;;;;;2090090;28;20622;-60
2021/11/07 01:12:27;;;;;;;21.00;18.83;;;;;;;;;;2090330;28;20166;-61
2021/11/07 01:13:28;;;;;;;20.05;17.95;;;;;;;;;;2091074;28;20171;-58
2021/11/07 01:14:28;;;;;;;16.60;14.95;;;;;;;;;;2090906;28;20176;-59
2021/11/07 01:15:30;;;;;;;21.10;19.13;;;;;;;;;;2090235;28;20258;-61
2021/11/07 01:16:30;;;;;;;22.13;18.25;;;;;;;;;;2090375;28;20596;-60
2021/11/07 01:17:30;;;;;;;20.35;16.20;;;;;;;;;;2090874;28;20174;-60
2021/11/07 01:18:31;;;;;;;17.98;16.17;;;;;;;;;;2090940;28;20798;-61
2021/11/07 01:19:31;;;;;;;21.20;19.17;;;;;;;;;;2090258;28;20184;-60
2021/11/07 01:20:32;;;;;;;21.30;18.80;;;;;;;;;;2090646;28;20168;-62
2021/11/07 01:21:37;;;;;;;19.58;17.67;;;;;;;;;;2090764;28;20184;-63
2021/11/07 01:22:53;;;;;;;20.05;17.98;;;;;;;;;;2090888;28;20180;-61
2021/11/07 01:24:57;;;;;;;21.60;19.30;;;;;;;;;;2090317;28;20179;-63
2021/11/07 01:26:06;;;;;;;17.33;15.55;;;;;;;;;;2089900;28;20207;-60
2021/11/07 01:28:14;;;;;;;14.60;12.18;;;;;;;;;;2090750;28;20655;-62
2021/11/07 01:29:26;;;;;;;18.27;16.50;;;;;;;;;;2091009;28;20592;-60
2021/11/07 01:30:29;;;;;;;18.13;16.35;;;;;;;;;;2090302;28;20198;-65
2021/11/07 01:31:30;;;;;;;18.98;17.20;;;;;;;;;;2090668;28;20164;-63
2021/11/07 01:32:38;;;;;;;19.02;17.23;;;;;;;;;;2090635;28;20321;-59
2021/11/07 01:33:38;;;;;;;21.13;18.75;;;;;;;;;;2090628;28;20239;-60
2021/11/07 01:34:51;;;;;;;20.17;18.17;;;;;;;;;;2090435;28;20190;-62
2021/11/07 01:37:17;;;;;;;19.13;17.33;;;;;;;;;;2090392;28;20159;-61
2021/11/07 01:38:24;;;;;;;16.83;12.80;;;;;;;;;;2090737;28;20606;-61
2021/11/07 01:39:38;;;;;;;14.35;12.75;;;;;;;;;;2090526;28;20148;-60
2021/11/07 01:40:44;;;;;;;19.77;17.90;;;;;;;;;;2090248;28;20666;-59
2021/11/07 01:42:00;;;;;;;18.15;16.45;;;;;;;;;;2090764;28;20252;-60
2021/11/07 01:43:01;;;;;;;18.02;16.27;;;;;;;;;;2090824;28;20160;-61
2021/11/07 01:44:01;;;;;;;18.90;16.98;;;;;;;;;;2090916;28;20164;-62
2021/11/07 01:45:08;;;;;;;19.30;17.02;;;;;;;;;;2090631;28;20206;-60
2021/11/07 01:46:17;;;;;;;18.58;16.65;;;;;;;;;;2090698;28;20184;-62
2021/11/07 01:47:17;;;;;;;18.67;16.77;;;;;;;;;;2091095;28;20183;-61
2021/11/07 01:48:26;;;;;;;20.02;18.15;;;;;;;;;;2090693;28;20199;-59
2021/11/07 01:49:33;;;;;;;15.40;14.00;;;;;;;;;;2090727;28;20152;-60
2021/11/07 01:50:39;;;;;;;17.27;15.45;;;;;;;;;;2090161;28;20253;-62
2021/11/07 01:51:47;;;;;;;17.83;16.13;;;;;;;;;;2090883;28;20508;-61
2021/11/07 01:52:53;;;;;;;17.48;15.43;;;;;;;;;;2090482;28;20838;-59
2021/11/07 01:54:00;;;;;;;15.02;13.50;;;;;;;;;;2090333;28;20164;-60
2021/11/07 01:55:04;;;;;;;18.40;16.65;;;;;;;;;;2090475;28;20206;-63
2021/11/07 01:56:08;;;;;;;12.45;11.32;;;;;;;;;;2088278;28;20568;-62
2021/11/07 01:57:09;;;;;;;14.65;13.25;;;;;;;;;;2084250;28;20682;-63
2021/11/07 01:58:09;;;;;;;15.63;14.02;;;;;;;;;;2090570;28;20206;-62
2021/11/07 01:59:09;;;;;;;16.33;14.68;;;;;;;;;;2089156;28;20671;-62
2021/11/07 02:00:19;;;;;;;16.27;14.80;;;;;;;;;;2088914;28;20179;-63
2021/11/07 02:01:21;;;;;;;15.50;13.90;;;;;;;;;;2086099;28;20326;-61
2021/11/07 02:02:23;;;;;;;15.25;13.68;;;;;;;;;;2090198;28;20600;-62
2021/11/07 02:03:24;;;;;;;15.10;13.60;;;;;;;;;;2089050;28;20263;-62
2021/11/07 02:04:24;;;;;;;15.32;13.77;;;;;;;;;;2089624;28;20171;-61
2021/11/07 02:05:25;;;;;;;15.50;13.90;;;;;;;;;;2090138;28;20171;-62
2021/11/07 02:06:26;;;;;;;14.98;13.60;;;;;;;;;;2086706;28;20424;-60
2021/11/07 02:07:26;;;;;;;14.10;12.73;;;;;;;;;;2084103;28;20227;-61
2021/11/07 02:08:27;;;;;;;12.95;11.85;;;;;;;;;;2085182;28;20178;-62
2021/11/07 02:09:27;;;;;;;13.20;12.07;;;;;;;;;;2083573;28;20184;-61
2021/11/07 02:10:28;;;;;;;13.70;12.55;;;;;;;;;;2089664;28;20179;-61
2021/11/07 02:11:28;;;;;;;14.32;12.95;;;;;;;;;;2089162;28;20174;-61
2021/11/07 02:12:29;;;;;;;14.20;12.90;;;;;;;;;;2083407;28;20179;-59
2021/11/07 02:13:29;;;;;;;14.57;13.07;;;;;;;;;;2089558;28;20167;-63
2021/11/07 02:14:30;;;;;;;11.85;10.75;;;;;;;;;;2089616;28;20598;-60
2021/11/07 02:15:31;;;;;;;11.63;10.57;;;;;;;;;;2090304;28;20186;-61
2021/11/07 02:16:32;;;;;;;12.38;11.13;;;;;;;;;;2089053;28;20695;-61
2021/11/07 02:17:32;;;;;;;13.40;12.10;;;;;;;;;;2090354;28;20185;-60
2021/11/07 02:18:34;;;;;;;11.27;10.18;;;;;;;;;;2087442;28;20605;-62
2021/11/07 02:19:35;;;;;;;10.88;9.88;;;;;;;;;;2089767;28;20171;-60
2021/11/07 02:20:38;;;;;;;13.93;12.43;;;;;;;;;;2089670;28;21016;-61
2021/11/07 02:21:38;;;;;;;11.52;10.43;;;;;;;;;;2087057;28;20207;-58
2021/11/07 02:22:39;;;;;;;12.38;11.20;;;;;;;;;;2078674;28;20191;-60
2021/11/07 02:23:40;;;;;;;11.32;10.35;;;;;;;;;;2081903;28;20176;-62
2021/11/07 02:24:41;;;;;;;12.57;11.57;;;;;;;;;;2090135;28;20191;-60
2021/11/07 02:25:42;;;;;;;10.38;9.48;;;;;;;;;;2088841;28;20168;-62
2021/11/07 02:26:48;;;;;;;11.02;10.18;;;;;;;;;;2090032;28;20212;-60
2021/11/07 02:27:49;;;;;;;7.70;7.10;;;;;;;;;;2082130;28;20273;-59
2021/11/07 02:28:49;;;;;;;10.95;9.90;;;;;;;;;;2089968;28;20224;-61
2021/11/07 02:29:51;;;;;;;11.05;10.25;;;;;;;;;;2089858;28;20207;-61
2021/11/07 02:30:52;;;;;;;12.60;11.43;;;;;;;;;;2087660;28;20176;-59
2021/11/07 02:31:54;;;;;;;11.73;10.73;;;;;;;;;;2089888;28;20263;-59
2021/11/07 02:32:55;;;;;;;10.05;9.15;;;;;;;;;;2089065;28;20176;-60
2021/11/07 02:33:55;;;;;;;9.32;8.60;;;;;;;;;;2090272;28;20172;-59
2021/11/07 02:34:56;;;;;;;9.43;8.63;;;;;;;;;;2081712;28;20562;-61
2021/11/07 02:36:01;;;;;;;6.82;6.22;;;;;;;;;;2083706;28;20196;-61
2021/11/07 02:37:02;;;;;;;10.77;9.68;;;;;;;;;;2089331;28;20182;-59
2021/11/07 02:38:02;;;;;;;11.18;10.15;;;;;;;;;;2090169;28;20170;-61
2021/11/07 02:39:03;;;;;;;10.25;9.32;;;;;;;;;;2082413;28;20283;-58
2021/11/07 02:40:06;;;;;;;10.25;9.43;;;;;;;;;;2086630;28;20251;-60
2021/11/07 02:41:07;;;;;;;11.88;10.02;;;;;;;;;;2089003;28;20250;-60
2021/11/07 02:42:08;;;;;;;11.35;10.35;;;;;;;;;;2088410;28;20237;-61
2021/11/07 02:43:09;;;;;;;10.40;9.48;;;;;;;;;;2083395;28;20614;-61
2021/11/07 02:44:09;;;;;;;7.90;7.32;;;;;;;;;;2077803;28;20267;-61
2021/11/07 02:45:12;;;;;;;11.45;10.32;;;;;;;;;;2075318;28;20680;-61
2021/11/07 02:46:15;;;;;;;7.57;6.88;;;;;;;;;;2085859;28;20234;-62
2021/11/07 02:47:16;;;;;;;9.27;8.52;;;;;;;;;;2080755;28;20627;-60
2021/11/07 02:48:17;;;;;;;8.43;7.63;;;;;;;;;;2089530;28;20164;-61
2021/11/07 02:49:17;;;;;;;9.32;8.43;;;;;;;;;;2085025;28;20559;-63
2021/11/07 02:50:19;;;;;;;10.10;9.10;;;;;;;;;;2088325;28;20222;-64
2021/11/07 02:51:22;;;;;;;10.80;9.80;;;;;;;;;;2086387;28;20183;-60
2021/11/07 02:52:23;;;;;;;9.05;8.35;;;;;;;;;;2085917;28;20168;-59
2021/11/07 02:53:24;;;;;;;9.38;8.68;;;;;;;;;;2089179;28;20167;-59
2021/11/07 02:54:24;;;;;;;8.35;7.68;;;;;;;;;;2090050;28;20210;-61
2021/11/07 02:55:25;;;;;;;8.93;8.13;;;;;;;;;;2079626;28;20255;-61
2021/11/07 02:56:26;;;;;;;9.50;8.70;;;;;;;;;;2086004;28;20674;-61
2021/11/07 02:57:27;;;;;;;8.35;7.65;;;;;;;;;;2088646;28;20193;-62
2021/11/07 02:58:27;;;;;;;5.97;5.40;;;;;;;;;;2090030;28;20175;-61
2021/11/07 02:59:30;;;;;;;8.07;7.43;;;;;;;;;;2086457;28;20180;-61
2021/11/07 03:00:32;;;;;;;9.07;8.38;;;;;;;;;;2086231;28;20434;-62
2021/11/07 03:01:32;;;;;;;9.05;8.27;;;;;;;;;;2089496;28;20611;-62
2021/11/07 03:02:32;;;;;;;10.15;8.75;;;;;;;;;;2089371;28;20249;-62
2021/11/07 03:03:33;;;;;;;11.57;10.40;;;;;;;;;;2084478;28;20204;-62
2021/11/07 03:04:34;;;;;;;10.30;9.40;;;;;;;;;;2087469;28;20194;-62
2021/11/07 03:05:35;;;;;;;9.35;8.05;;;;;;;;;;2083626;28;20275;-63
2021/11/07 03:06:36;;;;;;;10.00;9.07;;;;;;;;;;2081939;28;20192;-59
2021/11/07 03:07:36;;;;;;;9.63;8.82;;;;;;;;;;2071896;28;20922;-58
2021/11/07 03:08:43;;;;;;;10.20;9.25;;;;;;;;;;2086251;28;20179;-61
2021/11/07 03:09:44;;;;;;;7.43;6.75;;;;;;;;;;2082127;28;20161;-62
2021/11/07 03:10:44;;;;;;;8.10;7.43;;;;;;;;;;2088709;28;20205;-61
2021/11/07 03:11:45;;;;;;;8.73;7.93;;;;;;;;;;2089094;28;20662;-62
2021/11/07 03:12:46;;;;;;;8.73;8.07;;;;;;;;;;2089103;28;20182;-61
2021/11/07 03:13:48;;;;;;;9.68;8.07;;;;;;;;;;2089015;28;20171;-61
2021/11/07 03:14:50;;;;;;;8.48;7.78;;;;;;;;;;2088993;28;20222;-62
2021/11/07 03:15:51;;;;;;;9.63;7.68;;;;;;;;;;2088668;28;20171;-63
2021/11/07 03:16:52;;;;;;;10.50;9.48;;;;;;;;;;2080641;28;20178;-62
2021/11/07 03:17:52;;;;;;;10.30;9.30;;;;;;;;;;2087061;28;20238;-62
2021/11/07 03:18:52;;;;;;;11.90;10.63;;;;;;;;;;2089911;28;20727;-61
2021/11/07 03:19:53;;;;;;;6.68;6.13;;;;;;;;;;2089278;28;20160;-62
2021/11/07 03:20:54;;;;;;;47.22;13.25;;;;;;;;;;2086197;28;20253;-63
2021/11/07 03:21:56;;;;;;;11.98;10.45;;;;;;;;;;2080246;28;20208;-62
2021/11/07 03:22:56;;;;;;;10.65;9.65;;;;;;;;;;2082652;28;20169;-61
2021/11/07 03:23:58;;;;;;;12.70;11.40;;;;;;;;;;2086553;28;20641;-61
2021/11/07 03:24:58;;;;;;;14.48;12.95;;;;;;;;;;2087414;28;20706;-61
2021/11/07 03:27:18;;;;;;;12.07;10.82;;;;;;;;;;2069462;28;20228;-55
2021/11/07 03:28:19;;;;;;;14.07;12.60;;;;;;;;;;2069481;28;20187;-51
2021/11/07 03:29:21;;;;;;;16.27;13.38;;;;;;;;;;2072774;28;20192;-50
2021/11/07 03:30:37;;;;;;;12.02;10.30;;;;;;;;;;2071570;28;20195;-51
2021/11/07 03:32:47;;;;;;;17.45;14.15;;;;;;;;;;2072439;28;20181;-52
2021/11/07 03:33:56;;;;;;;15.32;13.00;;;;;;;;;;2072680;28;20641;-50
2021/11/07 03:35:00;;;;;;;13.45;11.73;;;;;;;;;;2066383;28;20269;-52
2021/11/07 03:36:04;;;;;;;14.02;11.95;;;;;;;;;;2064057;28;20165;-52
2021/11/07 03:37:08;;;;;;;16.58;14.90;;;;;;;;;;2064292;28;20200;-52
2021/11/07 03:38:09;;;;;;;20.65;12.77;;;;;;;;;;2072293;28;20656;-53
2021/11/07 03:39:10;;;;;;;15.90;14.23;;;;;;;;;;2072757;28;20164;-49
2021/11/07 03:40:12;;;;;;;14.05;11.57;;;;;;;;;;2072274;28;20200;-50
2021/11/07 03:41:13;;;;;;;15.65;13.57;;;;;;;;;;2072492;28;20593;-53
2021/11/07 03:42:13;;;;;;;13.80;12.30;;;;;;;;;;2072541;28;20192;-55
2021/11/07 03:43:13;;;;;;;16.20;14.43;;;;;;;;;;2072534;28;20172;-54
2021/11/07 03:44:14;;;;;;;15.32;11.90;;;;;;;;;;2068464;28;20176;-52
2021/11/07 03:45:15;;;;;;;15.73;10.77;;;;;;;;;;2072599;28;20624;-55
2021/11/07 03:46:15;;;;;;;17.33;14.45;;;;;;;;;;2073003;28;20216;-52
2021/11/07 03:47:16;;;;;;;15.93;14.30;;;;;;;;;;2072239;28;20200;-52
2021/11/07 03:48:16;;;;;;;17.30;14.35;;;;;;;;;;2068359;28;20638;-53
2021/11/07 03:49:17;;;;;;;14.50;13.02;;;;;;;;;;2071818;28;20248;-52
2021/11/07 03:50:19;;;;;;;17.02;15.23;;;;;;;;;;2072918;28;20649;-53
2021/11/07 03:51:19;;;;;;;17.60;15.13;;;;;;;;;;2072192;28;20252;-55
2021/11/07 03:52:20;;;;;;;18.42;16.55;;;;;;;;;;2070867;28;20172;-56
2021/11/07 03:53:20;;;;;;;18.08;14.77;;;;;;;;;;2072061;28;20555;-55
2021/11/07 03:54:22;;;;;;;19.50;16.05;;;;;;;;;;2070122;28;20165;-58
2021/11/07 03:55:23;;;;;;;21.10;16.55;;;;;;;;;;2069574;28;20193;-53
2021/11/07 03:56:23;;;;;;;20.70;16.35;;;;;;;;;;2071733;28;20216;-50
2021/11/07 03:57:23;;;;;;;20.20;17.92;;;;;;;;;;2072932;28;20672;-55
2021/11/07 03:58:24;;;;;;;21.20;18.08;;;;;;;;;;2071515;28;20227;-54
2021/11/07 03:59:24;;;;;;;22.25;17.63;;;;;;;;;;2072612;28;20703;-53
2021/11/07 04:00:24;;;;;;;23.63;19.30;;;;;;;;;;2072459;28;20177;-51
2021/11/07 04:01:25;;;;;;;17.88;15.45;;;;;;;;;;2077497;28;20215;-52
2021/11/07 04:02:25;;;;;;;23.83;19.40;;;;;;;;;;2078135;28;20173;-56
2021/11/07 04:03:26;;;;;;;24.95;19.23;;;;;;;;;;2073711;28;20185;-54
2021/11/07 04:04:26;;;;;;;25.08;19.95;;;;;;;;;;2071675;28;20709;-52
2021/11/07 04:05:27;;;;;;;23.90;18.25;;;;;;;;;;2070129;28;20197;-51
2021/11/07 04:06:27;;;;;;;22.33;19.15;;;;;;;;;;2072459;28;20197;-51
2021/11/07 04:07:27;;;;;;;24.27;20.50;;;;;;;;;;2069660;28;20283;-51
2021/11/07 04:08:28;;;;;;;30.42;19.33;;;;;;;;;;2063227;28;20189;-50
2021/11/07 04:09:28;;;;;;;24.08;17.65;;;;;;;;;;2073379;28;20177;-54
2021/11/07 04:10:29;;;;;;;27.13;21.48;;;;;;;;;;2070354;28;20181;-52
2021/11/07 04:11:29;;;;;;;22.45;18.05;;;;;;;;;;2073539;28;20200;-53
2021/11/07 04:12:29;;;;;;;26.52;19.60;;;;;;;;;;2076465;28;20180;-51
2021/11/07 04:13:31;;;;;;;22.95;16.67;;;;;;;;;;2076504;28;20333;-50
2021/11/07 04:14:35;;;;;;;22.08;17.00;;;;;;;;;;2077265;28;20529;-50
2021/11/07 04:15:35;;;;;;;25.52;18.70;;;;;;;;;;2077299;28;20184;-50
2021/11/07 04:16:37;;;;;;;25.05;18.35;;;;;;;;;;2076737;28;20528;-54
2021/11/07 04:17:37;;;;;;;27.48;21.20;;;;;;;;;;2068362;28;20611;-52
2021/11/07 04:18:38;;;;;;;28.02;22.15;;;;;;;;;;2067446;28;20212;-52
2021/11/07 04:19:39;;;;;;;24.65;20.50;;;;;;;;;;2074762;28;20189;-54
2021/11/07 04:20:39;;;;;;;25.95;21.10;;;;;;;;;;2071107;28;20604;-50
2021/11/07 04:21:42;;;;;;;26.92;21.00;;;;;;;;;;2068517;28;20189;-53
2021/11/07 04:22:42;;;;;;;25.08;19.42;;;;;;;;;;2074406;28;20200;-50
2021/11/07 04:23:43;;;;;;;28.95;21.77;;;;;;;;;;2074570;28;20197;-54
2021/11/07 04:24:44;;;;;;;18.25;15.23;;;;;;;;;;2068354;28;20273;-54
2021/11/07 04:25:44;;;;;;;27.92;20.42;;;;;;;;;;2074431;28;20173;-53
2021/11/07 04:26:44;;;;;;;25.38;20.95;;;;;;;;;;2073656;28;20224;-53
2021/11/07 04:27:44;;;;;;;24.67;20.45;;;;;;;;;;2075573;28;20205;-53
2021/11/07 04:28:45;;;;;;;27.88;19.63;;;;;;;;;;2066025;28;20705;-55
2021/11/07 04:29:45;;;;;;;28.42;20.50;;;;;;;;;;2057930;28;20190;-54
2021/11/07 04:30:45;;;;;;;23.55;18.05;;;;;;;;;;2072617;28;20184;-55
2021/11/07 04:31:46;;;;;;;27.00;20.63;;;;;;;;;;2075117;28;20196;-55
2021/11/07 04:32:46;;;;;;;22.08;17.83;;;;;;;;;;2071260;28;20232;-54
2021/11/07 04:33:46;;;;;;;23.63;17.60;;;;;;;;;;2066679;28;20169;-58
2021/11/07 04:34:46;;;;;;;22.33;19.08;;;;;;;;;;2074917;28;20193;-52
2021/11/07 04:35:47;;;;;;;22.23;17.95;;;;;;;;;;2069985;28;20254;-55
2021/11/07 04:36:47;;;;;;;19.48;15.93;;;;;;;;;;2073474;28;20242;-56
2021/11/07 04:37:48;;;;;;;23.95;17.67;;;;;;;;;;2075213;28;20183;-57
2021/11/07 04:38:48;;;;;;;26.30;17.65;;;;;;;;;;2068256;28;20201;-56
2021/11/07 04:39:48;;;;;;;16.98;13.80;;;;;;;;;;2074920;28;20165;-57
2021/11/07 04:40:49;;;;;;;15.45;13.00;;;;;;;;;;2074901;28;20180;-52
2021/11/07 04:41:50;;;;;;;18.50;15.90;;;;;;;;;;2075247;28;20172;-52
2021/11/07 04:42:50;;;;;;;21.33;15.65;;;;;;;;;;2075102;28;20189;-55
2021/11/07 04:43:50;;;;;;;20.77;17.30;;;;;;;;;;2072390;28;20173;-54
2021/11/07 04:44:51;;;;;;;16.38;14.25;;;;;;;;;;2074328;28;20161;-52
2021/11/07 04:45:52;;;;;;;21.75;16.00;;;;;;;;;;2074757;28;20184;-51
2021/11/07 04:46:52;;;;;;;19.35;15.98;;;;;;;;;;2073538;28;20561;-51
2021/11/07 04:47:53;;;;;;;18.38;15.50;;;;;;;;;;2073732;28;20174;-53
2021/11/07 04:48:53;;;;;;;16.25;13.52;;;;;;;;;;2073229;28;20177;-51
2021/11/07 04:49:54;;;;;;;18.20;11.23;;;;;;;;;;2065542;28;20204;-50
2021/11/07 04:50:54;;;;;;;12.60;10.13;;;;;;;;;;2073507;28;20184;-55
2021/11/07 04:51:55;;;;;;;17.02;11.50;;;;;;;;;;2071487;28;20537;-53
2021/11/07 04:52:55;;;;;;;15.93;11.57;;;;;;;;;;2074348;28;20169;-54
2021/11/07 04:53:55;;;;;;;16.13;10.90;;;;;;;;;;2073651;28;20659;-50
2021/11/07 04:54:56;;;;;;;13.95;10.32;;;;;;;;;;2070687;28;20198;-53
2021/11/07 04:55:56;;;;;;;11.75;10.60;;;;;;;;;;2073656;28;20579;-53
2021/11/07 04:56:56;;;;;;;18.13;10.85;;;;;;;;;;2062829;28;20248;-52
2021/11/07 04:57:57;;;;;;;19.33;10.45;;;;;;;;;;2071952;28;20583;-54
2021/11/07 04:58:57;;;;;;;23.08;10.77;;;;;;;;;;2065165;28;20528;-54
2021/11/07 04:59:57;;;;;;;14.23;9.00;;;;;;;;;;2066322;28;20260;-53
2021/11/07 05:00:58;;;;;;;12.68;9.25;;;;;;;;;;2073634;28;20189;-53
2021/11/07 05:01:58;;;;;;;18.77;9.73;;;;;;;;;;2067473;28;20244;-50
2021/11/07 05:03:00;;;;;;;20.15;10.23;;;;;;;;;;2074051;28;20205;-50
2021/11/07 05:04:01;;;;;;;10.63;8.98;;;;;;;;;;2067859;28;20221;-51
2021/11/07 05:05:02;;;;;;;12.00;10.65;;;;;;;;;;2071054;28;20176;-55
2021/11/07 05:06:02;;;;;;;8.50;7.68;;;;;;;;;;2061567;28;20178;-51
2021/11/07 05:07:03;;;;;;;10.93;9.25;;;;;;;;;;2073318;28;20172;-50
2021/11/07 05:08:03;;;;;;;9.68;8.57;;;;;;;;;;2068110;28;20177;-54
2021/11/07 05:09:04;;;;;;;10.35;9.30;;;;;;;;;;2074023;28;20208;-55
2021/11/07 05:10:04;;;;;;;9.02;6.65;;;;;;;;;;2068114;28;20176;-52
2021/11/07 05:11:05;;;;;;;7.70;6.30;;;;;;;;;;2070009;28;20207;-50
2021/11/07 05:12:05;;;;;;;7.40;6.60;;;;;;;;;;2068761;28;20228;-50
2021/11/07 05:13:07;;;;;;;8.68;6.95;;;;;;;;;;2070670;28;20171;-52
2021/11/07 05:14:08;;;;;;;9.60;7.57;;;;;;;;;;2065491;28;20186;-56
2021/11/07 05:15:08;;;;;;;8.25;7.45;;;;;;;;;;2062452;28;20170;-51
2021/11/07 05:16:09;;;;;;;8.95;8.18;;;;;;;;;;2068800;28;20231;-50
2021/11/07 05:17:09;;;;;;;9.48;8.32;;;;;;;;;;2073459;28;20187;-51
2021/11/07 05:18:09;;;;;;;9.25;8.00;;;;;;;;;;2074557;28;20816;-54
2021/11/07 05:19:11;;;;;;;9.73;8.45;;;;;;;;;;2074040;28;20185;-55
2021/11/07 05:20:11;;;;;;;12.35;10.25;;;;;;;;;;2077390;28;20172;-58
2021/11/07 05:21:12;;;;;;;12.48;10.73;;;;;;;;;;2077564;28;20191;-57
2021/11/07 05:22:12;;;;;;;11.95;10.07;;;;;;;;;;2077202;28;20185;-54
2021/11/07 05:23:13;;;;;;;14.50;11.80;;;;;;;;;;2077772;28;20175;-56
2021/11/07 05:24:13;;;;;;;15.05;11.98;;;;;;;;;;2071004;28;20185;-52
2021/11/07 05:25:14;;;;;;;15.40;11.40;;;;;;;;;;2065194;28;20235;-52
2021/11/07 05:26:14;;;;;;;15.00;12.27;;;;;;;;;;2074272;28;20563;-54
2021/11/07 05:27:15;;;;;;;13.73;11.60;;;;;;;;;;2071310;28;20283;-52
2021/11/07 05:28:15;;;;;;;14.60;11.65;;;;;;;;;;2074490;28;20165;-51
2021/11/07 05:29:16;;;;;;;15.10;12.23;;;;;;;;;;2069249;28;20169;-50
2021/11/07 05:30:17;;;;;;;17.80;13.35;;;;;;;;;;2069469;28;20174;-57
2021/11/07 05:31:18;;;;;;;19.50;15.05;;;;;;;;;;2073082;28;20184;-52
2021/11/07 05:32:18;;;;;;;17.92;15.23;;;;;;;;;;2060967;28;20261;-49
2021/11/07 05:33:19;;;;;;;14.77;12.20;;;;;;;;;;2052854;28;21437;-52
2021/11/07 05:34:19;;;;;;;15.75;12.20;;;;;;;;;;2069658;28;20165;-50
2021/11/07 05:35:19;;;;;;;14.95;13.32;;;;;;;;;;2074339;28;20235;-54
2021/11/07 05:36:20;;;;;;;18.95;14.40;;;;;;;;;;2072576;28;20631;-53
2021/11/07 05:37:20;;;;;;;17.05;15.25;;;;;;;;;;2070087;28;20572;-52
2021/11/07 05:38:20;;;;;;;16.23;13.77;;;;;;;;;;2073628;28;20176;-51
2021/11/07 05:39:23;;;;;;;17.40;13.95;;;;;;;;;;2078779;28;20168;-54
2021/11/07 05:40:23;;;;;;;17.52;14.90;;;;;;;;;;2067868;28;20177;-52
2021/11/07 05:41:23;;;;;;;17.42;14.25;;;;;;;;;;2065144;28;20774;-54
2021/11/07 05:42:23;;;;;;;17.15;13.50;;;;;;;;;;2064024;28;20177;-51
2021/11/07 05:43:24;;;;;;;18.70;14.52;;;;;;;;;;2062652;28;20260;-54
2021/11/07 05:44:24;;;;;;;19.48;15.10;;;;;;;;;;2070421;28;20189;-53
2021/11/07 05:45:25;;;;;;;19.23;14.23;;;;;;;;;;2070961;28;20208;-54
2021/11/07 05:46:25;;;;;;;17.42;13.38;;;;;;;;;;2069779;28;20243;-54
2021/11/07 05:47:26;;;;;;;13.73;11.98;;;;;;;;;;2070469;28;20200;-55
2021/11/07 05:48:26;;;;;;;15.68;12.95;;;;;;;;;;2074010;28;20285;-52
2021/11/07 05:49:27;;;;;;;16.58;13.45;;;;;;;;;;2071254;28;20235;-52
2021/11/07 05:50:28;;;;;;;14.32;12.77;;;;;;;;;;2073032;28;20195;-51
2021/11/07 05:51:28;;;;;;;18.77;12.77;;;;;;;;;;2074102;28;20649;-55
2021/11/07 05:52:29;;;;;;;18.13;12.95;;;;;;;;;;2073279;28;20271;-50
2021/11/07 05:53:29;;;;;;;16.55;12.80;;;;;;;;;;2074100;28;20185;-52
2021/11/07 05:54:30;;;;;;;15.40;11.15;;;;;;;;;;2073328;28;20181;-50
2021/11/07 05:55:31;;;;;;;13.73;10.88;;;;;;;;;;2074193;28;20534;-54
2021/11/07 05:56:31;;;;;;;18.10;13.68;;;;;;;;;;2066871;28;20346;-54
2021/11/07 05:57:32;;;;;;;14.93;11.82;;;;;;;;;;2071275;28;20195;-52
2021/11/07 05:58:32;;;;;;;19.92;11.95;;;;;;;;;;2073085;28;20181;-49
2021/11/07 05:59:33;;;;;;;16.77;12.10;;;;;;;;;;2064826;28;20224;-51
2021/11/07 06:00:34;;;;;;;13.60;10.57;;;;;;;;;;2063899;28;20200;-53
2021/11/07 06:01:35;;;;;;;18.70;10.20;;;;;;;;;;2071663;28;20188;-53
2021/11/07 06:02:36;;;;;;;15.02;11.57;;;;;;;;;;2067257;28;20232;-52
2021/11/07 06:03:36;;;;;;;15.02;11.45;;;;;;;;;;2057002;28;20244;-55
2021/11/07 06:04:36;;;;;;;16.42;12.02;;;;;;;;;;2069661;28;20181;-51
2021/11/07 06:05:36;;;;;;;18.73;11.20;;;;;;;;;;2072153;28;20191;-52
2021/11/07 06:06:37;;;;;;;12.82;8.27;;;;;;;;;;2066039;28;20209;-56
2021/11/07 06:07:37;;;;;;;13.48;10.77;;;;;;;;;;2067953;28;20256;-55
2021/11/07 06:08:37;;;;;;;15.77;9.80;;;;;;;;;;2066853;28;20231;-52
2021/11/07 06:09:38;;;;;;;13.40;9.43;;;;;;;;;;2074667;28;20219;-56
2021/11/07 06:10:38;;;;;;;14.45;10.38;;;;;;;;;;2066519;28;20545;-52
2021/11/07 06:11:38;;;;;;;12.25;10.70;;;;;;;;;;2071616;28;20185;-50
2021/11/07 06:12:39;;;;;;;13.02;10.30;;;;;;;;;;2072846;28;20177;-50
2021/11/07 06:13:39;;;;;;;12.57;10.55;;;;;;;;;;2073527;28;20578;-50
2021/11/07 06:14:39;;;;;;;21.38;10.70;;;;;;;;;;2063830;28;20806;-50
2021/11/07 06:15:39;;;;;;;13.23;9.90;;;;;;;;;;2070983;28;20169;-52
2021/11/07 06:16:40;;;;;;;17.08;11.40;;;;;;;;;;2073015;28;20193;-56
2021/11/07 06:17:40;;;;;;;14.38;10.02;;;;;;;;;;2064249;28;20191;-52
2021/11/07 06:18:40;;;;;;;15.65;10.20;;;;;;;;;;2063958;28;20182;-52
2021/11/07 06:19:41;;;;;;;15.80;10.65;;;;;;;;;;2072352;28;20668;-51
2021/11/07 06:20:41;;;;;;;19.70;11.25;;;;;;;;;;2055450;28;20206;-51
2021/11/07 06:21:42;;;;;;;14.93;10.13;;;;;;;;;;2063347;28;20165;-50
2021/11/07 06:22:42;;;;;;;15.70;11.48;;;;;;;;;;2070781;28;20254;-53
2021/11/07 06:23:43;;;;;;;15.88;11.25;;;;;;;;;;2073053;28;20242;-52
2021/11/07 06:24:43;;;;;;;13.60;11.50;;;;;;;;;;2072783;28;20226;-54
2021/11/07 06:25:44;;;;;;;14.77;10.15;;;;;;;;;;2073737;28;20181;-50
2021/11/07 06:26:44;;;;;;;18.73;11.77;;;;;;;;;;2072897;28;20208;-53
2021/11/07 06:27:44;;;;;;;18.30;11.60;;;;;;;;;;2072689;28;20668;-54
2021/11/07 06:28:45;;;;;;;20.20;11.68;;;;;;;;;;2073383;28;20220;-53
2021/11/07 06:29:45;;;;;;;16.20;12.45;;;;;;;;;;2072575;28;20192;-51
2021/11/07 06:30:47;;;;;;;17.98;11.50;;;;;;;;;;2071916;28;20181;-49